Time;durP1;ratioP1;P1;durP2;ratioP2;P2;SDS_P1;SDS_P2;PMS_P1;PMS_P2;Temp;Humidity;BMP_temperature;BMP_pressure;BME280_temperature;BME280_humidity;BME280_pressure;Samples;Min_cycle;Max_cycle;Signal;HPM_P1;HPM_P2
2022/08/20 00:00:33;;;;;;;17.00;7.95;;;18.90;99.90;;;;;;4970941;28;20054;-68
2022/08/20 00:03:17;;;;;;;15.93;7.53;;;18.90;99.90;;;;;;4902781;28;256698;-69
2022/08/20 00:05:47;;;;;;;15.43;7.88;;;18.90;99.90;;;;;;4965959;28;20051;-69
2022/08/20 00:08:13;;;;;;;18.60;8.20;;;18.90;99.90;;;;;;4919623;28;265954;-68
2022/08/20 00:10:42;;;;;;;16.15;8.15;;;18.90;99.90;;;;;;4966717;28;20054;-68
2022/08/20 00:13:12;;;;;;;17.45;8.73;;;18.90;99.90;;;;;;4919960;28;262057;-69
2022/08/20 00:15:39;;;;;;;15.37;8.57;;;18.90;99.90;;;;;;4985634;28;20050;-68
2022/08/20 00:18:07;;;;;;;14.50;8.33;;;18.80;99.90;;;;;;4922256;28;252979;-68
2022/08/20 00:20:40;;;;;;;15.77;9.20;;;18.80;99.90;;;;;;4981453;28;20061;-69
2022/08/20 00:23:06;;;;;;;15.65;7.95;;;18.80;99.90;;;;;;4926010;28;267795;-69
2022/08/20 00:25:33;;;;;;;17.15;8.45;;;18.70;99.90;;;;;;4970516;28;20055;-69
2022/08/20 00:28:02;;;;;;;18.83;8.85;;;18.70;99.90;;;;;;4926302;28;259005;-68
2022/08/20 00:30:30;;;;;;;18.67;9.10;;;18.70;99.90;;;;;;4980384;28;20062;-68
2022/08/20 00:33:08;;;;;;;16.13;8.05;;;18.70;99.90;;;;;;4927663;28;252743;-69
2022/08/20 00:35:39;;;;;;;18.92;9.30;;;18.60;99.90;;;;;;4986642;28;20055;-68
2022/08/20 00:38:05;;;;;;;18.60;8.95;;;18.60;99.90;;;;;;4923625;28;273576;-68
2022/08/20 00:40:42;;;;;;;15.88;9.48;;;18.60;99.90;;;;;;4984110;28;20066;-68
2022/08/20 00:43:24;;;;;;;18.70;8.73;;;18.50;99.90;;;;;;4906862;28;249189;-69
2022/08/20 00:45:54;;;;;;;16.42;9.15;;;18.50;99.90;;;;;;4966728;28;20062;-68
2022/08/20 00:48:21;;;;;;;15.40;8.05;;;18.50;99.90;;;;;;4924772;28;185284;-68
2022/08/20 00:50:48;;;;;;;18.15;8.02;;;18.40;99.90;;;;;;4977074;28;20059;-68
2022/08/20 00:53:14;;;;;;;16.38;8.75;;;18.40;99.90;;;;;;4930779;28;254214;-69
2022/08/20 00:55:40;;;;;;;20.52;8.93;;;18.30;99.90;;;;;;4981765;28;20403;-69
2022/08/20 00:58:08;;;;;;;20.85;9.27;;;18.30;99.90;;;;;;4919222;28;275623;-68
2022/08/20 01:00:39;;;;;;;16.75;8.15;;;18.30;99.90;;;;;;4982421;28;20062;-68
2022/08/20 01:03:08;;;;;;;17.02;7.95;;;18.20;99.90;;;;;;4910654;28;257990;-68
2022/08/20 01:05:40;;;;;;;20.85;8.90;;;18.20;99.90;;;;;;4984828;28;20097;-68
2022/08/20 01:08:06;;;;;;;16.60;7.80;;;18.20;99.90;;;;;;4909375;28;207153;-69
2022/08/20 01:10:35;;;;;;;16.75;8.48;;;18.20;99.90;;;;;;4965838;28;20054;-69
2022/08/20 01:13:09;;;;;;;17.52;9.00;;;18.20;99.90;;;;;;4928735;28;226438;-69
2022/08/20 01:15:41;;;;;;;19.10;8.90;;;18.20;99.90;;;;;;4983455;28;20086;-68
2022/08/20 01:18:12;;;;;;;18.45;9.13;;;18.20;99.90;;;;;;4931390;28;254127;-69
2022/08/20 01:20:59;;;;;;;18.00;8.55;;;18.10;99.90;;;;;;4981693;28;20057;-68
2022/08/20 01:23:31;;;;;;;21.40;8.98;;;18.10;99.90;;;;;;4924216;28;205892;-68
2022/08/20 01:26:03;;;;;;;18.60;8.57;;;18.10;99.90;;;;;;4963170;28;260169;-69
2022/08/20 01:28:54;;;;;;;19.00;8.25;;;18.10;99.90;;;;;;4942418;28;215352;-69
2022/08/20 01:31:27;;;;;;;16.67;7.95;;;18.10;99.90;;;;;;4962830;28;82872;-69
2022/08/20 01:33:55;;;;;;;17.85;8.93;;;18.10;99.90;;;;;;4937650;28;208338;-69
2022/08/20 01:36:25;;;;;;;15.57;8.32;;;18.00;99.90;;;;;;4959824;28;82259;-69
2022/08/20 01:38:52;;;;;;;17.60;8.65;;;18.00;99.90;;;;;;4952932;28;157658;-69
2022/08/20 01:41:21;;;;;;;19.83;9.27;;;18.00;99.90;;;;;;4948803;28;273297;-69
2022/08/20 01:43:49;;;;;;;17.80;8.63;;;18.00;99.90;;;;;;4942133;28;216969;-68
2022/08/20 01:46:17;;;;;;;22.73;9.35;;;18.00;99.90;;;;;;4958411;28;271020;-68
2022/08/20 01:48:44;;;;;;;18.30;9.05;;;18.00;99.90;;;;;;4918870;28;206861;-71
2022/08/20 01:51:17;;;;;;;17.63;9.05;;;18.00;99.90;;;;;;4960237;28;254144;-69
2022/08/20 01:53:46;;;;;;;15.50;8.02;;;18.00;99.90;;;;;;4939489;28;215643;-69
2022/08/20 01:56:17;;;;;;;19.95;8.00;;;18.00;99.90;;;;;;4961326;28;266456;-68
2022/08/20 01:58:50;;;;;;;18.48;7.47;;;18.00;99.90;;;;;;4922636;28;205746;-69
2022/08/20 02:01:23;;;;;;;21.92;8.88;;;18.00;99.90;;;;;;4942264;28;255249;-69
2022/08/20 02:03:50;;;;;;;18.17;7.53;;;18.00;99.90;;;;;;4926344;28;167169;-68
2022/08/20 02:06:17;;;;;;;20.85;8.80;;;17.90;99.90;;;;;;4951660;28;269471;-69
2022/08/20 02:08:43;;;;;;;16.77;7.45;;;17.90;99.90;;;;;;4928273;28;212584;-69
2022/08/20 02:11:10;;;;;;;14.30;6.37;;;17.90;99.90;;;;;;4950644;28;258036;-70
2022/08/20 02:13:37;;;;;;;15.73;6.10;;;17.90;99.90;;;;;;4940241;28;210104;-68
2022/08/20 02:16:04;;;;;;;16.45;6.95;;;17.90;99.90;;;;;;4959259;28;267010;-69
2022/08/20 02:18:31;;;;;;;17.85;7.18;;;17.90;99.90;;;;;;4943154;28;206385;-68
2022/08/20 02:20:58;;;;;;;18.35;6.85;;;17.90;99.90;;;;;;4952830;28;261592;-69
2022/08/20 02:23:25;;;;;;;18.08;7.03;;;17.90;99.90;;;;;;4920439;28;209580;-68
2022/08/20 02:25:52;;;;;;;19.05;7.57;;;17.90;99.90;;;;;;4954786;28;20070;-68
2022/08/20 02:28:19;;;;;;;16.50;7.20;;;17.90;99.90;;;;;;4910535;28;210910;-69
2022/08/20 02:30:50;;;;;;;14.88;7.10;;;17.90;99.90;;;;;;4986413;28;20055;-69
2022/08/20 02:33:18;;;;;;;19.80;7.28;;;17.90;99.90;;;;;;4919893;28;268851;-69
2022/08/20 02:35:47;;;;;;;16.17;6.63;;;17.80;99.90;;;;;;4974273;28;20039;-69
2022/08/20 02:38:14;;;;;;;18.00;7.00;;;17.90;99.90;;;;;;4915649;28;266889;-69
2022/08/20 02:40:43;;;;;;;16.75;7.18;;;17.90;99.90;;;;;;4971177;28;20591;-69
2022/08/20 02:43:09;;;;;;;18.42;7.50;;;17.80;99.90;;;;;;4914368;28;272698;-69
2022/08/20 02:45:42;;;;;;;17.23;6.57;;;17.70;99.90;;;;;;4980671;28;20061;-69
2022/08/20 02:48:19;;;;;;;19.98;7.82;;;17.70;99.90;;;;;;4918135;28;265774;-68
2022/08/20 02:50:55;;;;;;;22.05;7.88;;;17.70;99.90;;;;;;4983184;28;20050;-69
2022/08/20 02:53:23;;;;;;;19.45;7.40;;;17.70;99.90;;;;;;4919706;28;202758;-68
2022/08/20 02:55:50;;;;;;;18.75;7.30;;;17.60;99.90;;;;;;4980517;28;20051;-68
2022/08/20 02:58:17;;;;;;;15.88;7.07;;;17.60;99.90;;;;;;4927413;28;270609;-69
2022/08/20 03:00:43;;;;;;;20.33;7.97;;;17.50;99.90;;;;;;4978701;28;20404;-69
2022/08/20 03:03:11;;;;;;;16.40;7.40;;;17.50;99.90;;;;;;4906011;28;271429;-69
2022/08/20 03:05:39;;;;;;;16.58;7.32;;;17.50;99.90;;;;;;4967942;28;20054;-68
2022/08/20 03:08:08;;;;;;;17.25;7.28;;;17.50;99.90;;;;;;4915377;28;287724;-68
2022/08/20 03:10:35;;;;;;;16.08;5.93;;;17.50;99.90;;;;;;4968256;28;20050;-69
2022/08/20 03:13:02;;;;;;;17.52;7.63;;;17.50;99.90;;;;;;4903845;28;210767;-69
2022/08/20 03:15:31;;;;;;;17.23;7.78;;;17.50;99.90;;;;;;4979368;28;20055;-67
2022/08/20 03:17:58;;;;;;;15.53;6.60;;;17.50;99.90;;;;;;4922443;28;270333;-68
2022/08/20 03:20:25;;;;;;;15.07;6.90;;;17.50;99.90;;;;;;4987693;28;20061;-68
2022/08/20 03:22:52;;;;;;;18.48;8.10;;;17.50;99.90;;;;;;4932638;28;262809;-67
2022/08/20 03:25:18;;;;;;;14.38;6.70;;;17.50;99.90;;;;;;4986842;28;20054;-68
2022/08/20 03:27:46;;;;;;;19.90;7.22;;;17.40;99.90;;;;;;4954619;28;169857;-68
2022/08/20 03:30:15;;;;;;;18.02;7.18;;;17.40;99.90;;;;;;4924586;28;211227;-68
2022/08/20 03:32:42;;;;;;;16.15;6.88;;;17.40;99.90;;;;;;4964057;28;261354;-68
2022/08/20 03:35:11;;;;;;;16.67;6.85;;;17.40;99.90;;;;;;4916983;28;209669;-68
2022/08/20 03:37:38;;;;;;;16.95;6.93;;;17.30;99.90;;;;;;4956943;28;20058;-68
2022/08/20 03:40:08;;;;;;;15.63;6.35;;;17.30;99.90;;;;;;4919297;28;205650;-69
2022/08/20 03:42:34;;;;;;;13.55;5.78;;;17.30;99.90;;;;;;4957247;28;73247;-68
2022/08/20 03:45:01;;;;;;;16.30;6.30;;;17.30;99.90;;;;;;4915073;28;177502;-69
2022/08/20 03:47:27;;;;;;;15.85;5.82;;;17.30;99.90;;;;;;4965648;28;249293;-68
2022/08/20 03:49:58;;;;;;;16.50;6.63;;;17.30;99.90;;;;;;4932797;28;206833;-69
2022/08/20 03:52:27;;;;;;;15.70;6.25;;;17.30;99.90;;;;;;4963295;28;271073;-69
2022/08/20 03:54:53;;;;;;;17.00;7.20;;;17.30;99.90;;;;;;4909467;28;205592;-69
2022/08/20 03:57:20;;;;;;;16.70;6.38;;;17.30;99.90;;;;;;4968347;28;264706;-68
2022/08/20 03:59:46;;;;;;;15.35;6.07;;;17.20;99.90;;;;;;4926573;28;205828;-69
2022/08/20 04:02:13;;;;;;;20.35;6.88;;;17.20;99.90;;;;;;4955496;28;255935;-68
2022/08/20 04:04:40;;;;;;;15.75;6.05;;;17.20;99.90;;;;;;4939805;28;206679;-69
2022/08/20 04:07:24;;;;;;;18.83;6.10;;;17.20;99.90;;;;;;4962584;28;264036;-69
2022/08/20 04:09:55;;;;;;;17.67;6.00;;;17.20;99.90;;;;;;4935433;28;201961;-68
2022/08/20 04:12:22;;;;;;;19.80;6.05;;;17.20;99.90;;;;;;4963158;28;139373;-69
2022/08/20 04:14:50;;;;;;;16.20;6.13;;;17.20;99.90;;;;;;4944341;28;205897;-69
2022/08/20 04:17:18;;;;;;;18.73;6.65;;;17.20;99.90;;;;;;4955271;28;176931;-68
2022/08/20 04:19:46;;;;;;;19.08;6.18;;;17.20;99.90;;;;;;4928007;28;208578;-69
2022/08/20 04:22:13;;;;;;;18.48;5.93;;;17.20;99.90;;;;;;4964684;28;40604;-69
2022/08/20 04:24:41;;;;;;;16.65;5.90;;;17.20;99.90;;;;;;4953430;28;210936;-69
2022/08/20 04:27:08;;;;;;;17.85;5.80;;;17.10;99.90;;;;;;4965833;28;264831;-69
2022/08/20 04:29:36;;;;;;;13.95;4.38;;;17.20;99.90;;;;;;4941266;28;205873;-68
2022/08/20 04:32:04;;;;;;;16.05;5.05;;;17.10;99.90;;;;;;4967956;28;253881;-69
2022/08/20 04:34:30;;;;;;;19.35;5.28;;;17.10;99.90;;;;;;4915448;28;206333;-69
2022/08/20 04:36:57;;;;;;;16.33;4.97;;;17.00;99.90;;;;;;4959865;28;241754;-68
2022/08/20 04:39:23;;;;;;;17.63;5.30;;;17.00;99.90;;;;;;4930551;28;205936;-69
2022/08/20 04:41:49;;;;;;;14.93;4.97;;;17.00;99.90;;;;;;4959456;28;272996;-69
2022/08/20 04:44:15;;;;;;;16.73;4.88;;;17.00;99.90;;;;;;4946872;28;207036;-69
2022/08/20 04:46:42;;;;;;;16.42;4.90;;;17.00;99.90;;;;;;4962229;28;265178;-67
2022/08/20 04:49:08;;;;;;;18.20;5.05;;;17.00;99.90;;;;;;4929012;28;212563;-68
2022/08/20 04:51:34;;;;;;;14.25;4.40;;;17.10;99.90;;;;;;4961390;28;76390;-68
2022/08/20 04:54:02;;;;;;;16.80;4.78;;;17.10;99.90;;;;;;4941078;28;212699;-68
2022/08/20 04:56:31;;;;;;;15.18;4.65;;;17.10;99.90;;;;;;4966277;28;262572;-69
2022/08/20 04:59:00;;;;;;;14.50;4.43;;;17.10;99.90;;;;;;4934967;28;180768;-67
2022/08/20 05:01:27;;;;;;;17.92;4.63;;;17.10;99.90;;;;;;4938141;28;276160;-68
2022/08/20 05:03:56;;;;;;;17.45;4.35;;;17.10;99.90;;;;;;4913939;28;209819;-69
2022/08/20 05:06:27;;;;;;;14.13;4.38;;;17.10;99.90;;;;;;4948968;28;253800;-70
2022/08/20 05:08:56;;;;;;;16.35;4.07;;;17.10;99.90;;;;;;4914681;28;209695;-67
2022/08/20 05:11:23;;;;;;;19.10;4.60;;;17.00;99.90;;;;;;4944118;28;258939;-68
2022/08/20 05:13:51;;;;;;;12.43;4.10;;;17.00;99.90;;;;;;4927992;28;207953;-68
2022/08/20 05:16:18;;;;;;;17.73;4.88;;;17.00;99.90;;;;;;4941731;28;272515;-68
2022/08/20 05:18:45;;;;;;;14.88;4.32;;;16.90;99.90;;;;;;4922741;28;201054;-67
2022/08/20 05:21:12;;;;;;;15.13;4.23;;;16.90;99.90;;;;;;4941077;28;258956;-68
2022/08/20 05:23:41;;;;;;;14.65;4.15;;;16.90;99.90;;;;;;4931617;28;214694;-69
2022/08/20 05:26:09;;;;;;;14.73;4.83;;;16.90;99.90;;;;;;4959410;28;259592;-69
2022/08/20 05:28:38;;;;;;;16.77;4.70;;;16.90;99.90;;;;;;4936514;28;209477;-68
2022/08/20 05:31:08;;;;;;;12.02;4.00;;;16.90;99.90;;;;;;4948473;28;278409;-68
2022/08/20 05:33:36;;;;;;;12.68;4.65;;;16.90;99.90;;;;;;4909307;28;206305;-68
2022/08/20 05:36:05;;;;;;;15.55;5.07;;;16.90;99.90;;;;;;4952566;28;264233;-69
2022/08/20 05:38:33;;;;;;;13.30;4.53;;;16.90;99.90;;;;;;4924514;28;215244;-69
2022/08/20 05:41:00;;;;;;;13.88;4.63;;;16.90;99.90;;;;;;4949599;28;276910;-68
2022/08/20 05:43:27;;;;;;;15.65;4.70;;;16.90;99.90;;;;;;4920983;28;220441;-68
2022/08/20 05:45:53;;;;;;;15.18;4.93;;;17.00;99.90;;;;;;4969429;28;20065;-68
2022/08/20 05:48:21;;;;;;;20.38;5.38;;;17.00;99.90;;;;;;4934537;28;211401;-69
2022/08/20 05:50:49;;;;;;;17.05;5.28;;;17.00;99.90;;;;;;4966799;28;20054;-68
2022/08/20 05:53:17;;;;;;;14.07;5.22;;;17.00;99.90;;;;;;4928294;28;282701;-68
2022/08/20 05:55:44;;;;;;;14.13;4.70;;;17.10;99.90;;;;;;4954967;28;20423;-68
2022/08/20 05:58:17;;;;;;;16.80;4.75;;;17.10;99.90;;;;;;4922164;28;274681;-69
2022/08/20 06:00:44;;;;;;;20.13;4.80;;;17.10;99.90;;;;;;4969035;28;20055;-70
2022/08/20 06:05:55;;;;;;;14.77;4.30;;;17.20;99.90;;;;;;4969140;28;263652;-70
2022/08/20 06:08:21;;;;;;;16.13;4.50;;;17.30;99.90;;;;;;4920789;28;211567;-67
2022/08/20 06:10:47;;;;;;;12.40;3.60;;;17.30;99.90;;;;;;4987852;28;20055;-68
2022/08/20 06:13:13;;;;;;;15.00;3.30;;;17.30;99.90;;;;;;4917452;28;213309;-68
2022/08/20 06:15:40;;;;;;;14.40;3.75;;;17.40;99.90;;;;;;4977658;28;20495;-68
2022/08/20 06:18:07;;;;;;;15.27;3.90;;;17.50;99.90;;;;;;4919851;28;271723;-68
2022/08/20 06:20:36;;;;;;;16.88;3.35;;;17.50;99.90;;;;;;4979730;28;20050;-68
2022/08/20 06:23:03;;;;;;;13.47;3.40;;;17.60;99.90;;;;;;4904649;28;211114;-68
2022/08/20 06:25:29;;;;;;;14.77;3.70;;;17.80;99.90;;;;;;4967082;28;20055;-68
2022/08/20 06:27:56;;;;;;;11.73;3.20;;;17.80;99.90;;;;;;4919883;28;255477;-68
2022/08/20 06:30:22;;;;;;;13.30;3.20;;;18.20;99.90;;;;;;4981348;28;20053;-68
2022/08/20 06:32:49;;;;;;;14.98;3.28;;;18.60;99.90;;;;;;4921519;28;234995;-69
2022/08/20 06:35:16;;;;;;;9.70;2.55;;;18.90;99.90;;;;;;4946959;28;50952;-68
2022/08/20 06:37:42;;;;;;;14.93;3.35;;;19.20;99.90;;;;;;4961690;28;20054;-69
2022/08/20 06:40:15;;;;;;;12.02;2.80;;;19.40;99.90;;;;;;4932558;28;203754;-69
2022/08/20 06:42:42;;;;;;;14.57;2.88;;;19.40;99.90;;;;;;4956727;28;89656;-69
2022/08/20 06:45:11;;;;;;;12.23;2.35;;;19.50;99.90;;;;;;4893556;28;206564;-69
2022/08/20 06:47:42;;;;;;;14.35;2.22;;;19.80;99.90;;;;;;4967656;28;269525;-70
2022/08/20 06:50:22;;;;;;;10.02;2.13;;;19.80;99.90;;;;;;4926323;28;218953;-69
2022/08/20 06:52:48;;;;;;;10.93;2.00;;;20.00;99.90;;;;;;4944756;28;262208;-69
2022/08/20 06:55:16;;;;;;;11.43;2.17;;;20.20;99.90;;;;;;4947824;28;205949;-69
2022/08/20 06:57:42;;;;;;;12.48;2.05;;;20.40;99.90;;;;;;4956405;28;85643;-69
2022/08/20 07:00:18;;;;;;;11.60;2.05;;;20.60;99.90;;;;;;4915722;28;207614;-69
2022/08/20 07:02:45;;;;;;;15.55;2.20;;;20.80;99.90;;;;;;4936904;28;175044;-68
2022/08/20 07:05:12;;;;;;;12.15;2.10;;;20.80;99.90;;;;;;4946573;28;266304;-69
2022/08/20 07:07:38;;;;;;;13.30;2.28;;;21.00;99.90;;;;;;4962098;28;253346;-69
2022/08/20 07:10:07;;;;;;;11.75;1.92;;;21.30;99.90;;;;;;4943791;28;206587;-69
2022/08/20 07:12:35;;;;;;;11.23;2.10;;;21.60;99.90;;;;;;4945588;28;82577;-70
2022/08/20 07:15:03;;;;;;;10.57;1.98;;;21.60;99.90;;;;;;4906380;28;213236;-70
2022/08/20 07:17:29;;;;;;;11.77;2.17;;;21.60;99.90;;;;;;4959898;28;260418;-69
2022/08/20 07:19:55;;;;;;;12.73;1.90;;;21.60;99.90;;;;;;4938720;28;206183;-69
2022/08/20 07:22:23;;;;;;;9.50;1.63;;;21.60;99.90;;;;;;4973141;28;145208;-68
2022/08/20 07:24:50;;;;;;;14.13;1.90;;;21.70;99.90;;;;;;4918867;28;205283;-68
2022/08/20 07:27:21;;;;;;;9.25;1.48;;;21.60;99.90;;;;;;4948596;28;271402;-69
2022/08/20 07:32:35;;;;;;;9.80;1.73;;;21.00;99.90;;;;;;4972056;28;261018;-70
2022/08/20 07:35:11;;;;;;;9.43;1.65;;;20.80;99.90;;;;;;4928889;28;218391;-68
2022/08/20 07:37:40;;;;;;;10.93;1.80;;;20.80;99.90;;;;;;4969693;28;255392;-67
2022/08/20 07:40:10;;;;;;;9.07;1.65;;;21.00;99.90;;;;;;4928762;28;219575;-69
2022/08/20 07:42:38;;;;;;;10.15;1.75;;;21.30;99.90;;;;;;4967812;28;269524;-68
2022/08/20 07:45:09;;;;;;;10.45;1.75;;;21.60;99.90;;;;;;4937487;28;212739;-68
2022/08/20 07:47:40;;;;;;;10.63;1.70;;;22.00;99.90;;;;;;4960485;28;117073;-69
2022/08/20 07:50:08;;;;;;;8.55;1.45;;;22.10;99.90;;;;;;4945593;28;210263;-69
2022/08/20 07:52:35;;;;;;;11.30;1.70;;;22.30;99.90;;;;;;4964586;28;273623;-69
2022/08/20 07:55:06;;;;;;;10.82;1.92;;;22.50;99.90;;;;;;4947172;28;206375;-69
2022/08/20 07:57:33;;;;;;;9.98;1.60;;;22.40;99.90;;;;;;4937007;28;241850;-68
2022/08/20 07:59:59;;;;;;;8.73;1.70;;;22.40;99.90;;;;;;4915299;28;203437;-68
2022/08/20 08:02:26;;;;;;;11.50;1.83;;;22.50;99.90;;;;;;4947094;28;143637;-69
2022/08/20 08:04:53;;;;;;;10.13;1.60;;;22.50;99.90;;;;;;4924977;28;216948;-68
2022/08/20 08:07:20;;;;;;;9.48;1.50;;;22.60;99.90;;;;;;4947079;28;258909;-69
2022/08/20 08:09:48;;;;;;;9.00;1.60;;;22.70;99.90;;;;;;4930677;28;205964;-69
2022/08/20 08:12:15;;;;;;;10.27;1.52;;;23.00;99.90;;;;;;4954549;28;255363;-70
2022/08/20 08:14:45;;;;;;;10.02;1.60;;;23.30;99.90;;;;;;4947439;28;208072;-69
2022/08/20 08:17:12;;;;;;;10.10;1.63;;;23.60;99.90;;;;;;4961722;28;249928;-69
2022/08/20 08:19:47;;;;;;;9.45;1.70;;;24.00;98.60;;;;;;4943189;28;208604;-68
2022/08/20 08:22:15;;;;;;;10.63;1.70;;;24.00;99.90;;;;;;4960246;28;255743;-69
2022/08/20 08:24:43;;;;;;;10.30;1.80;;;24.40;99.90;;;;;;4933477;28;210780;-69
2022/08/20 08:27:09;;;;;;;10.68;1.70;;;24.30;99.30;;;;;;4959094;28;251305;-70
2022/08/20 08:29:36;;;;;;;9.27;1.73;;;24.20;99.90;;;;;;4948931;28;205027;-68
2022/08/20 08:32:04;;;;;;;9.65;1.67;;;24.30;99.20;;;;;;4965415;28;262788;-67
2022/08/20 08:34:33;;;;;;;8.93;1.80;;;24.30;98.10;;;;;;4929236;28;219329;-68
2022/08/20 08:37:00;;;;;;;9.02;1.70;;;24.40;99.90;;;;;;4959944;28;26261;-68
2022/08/20 08:39:27;;;;;;;9.50;1.60;;;24.90;98.70;;;;;;4932258;28;205425;-68
2022/08/20 08:41:56;;;;;;;8.50;1.50;;;25.10;97.20;;;;;;4952686;28;254136;-67
2022/08/20 08:44:25;;;;;;;10.85;1.65;;;25.10;96.90;;;;;;4923352;28;207381;-68
2022/08/20 08:46:56;;;;;;;10.93;1.70;;;25.20;97.10;;;;;;4952537;28;191219;-66
2022/08/20 08:49:26;;;;;;;11.95;1.70;;;25.30;98.30;;;;;;4920510;28;211118;-68
2022/08/20 08:52:03;;;;;;;9.60;1.55;;;25.80;98.50;;;;;;4959987;28;254760;-68
2022/08/20 08:54:31;;;;;;;8.90;1.58;;;26.50;97.70;;;;;;4934593;28;207083;-68
2022/08/20 08:56:58;;;;;;;9.60;1.83;;;26.80;96.50;;;;;;4951708;28;237861;-67
2022/08/20 08:59:28;;;;;;;12.07;1.73;;;26.80;94.30;;;;;;4940254;28;206495;-67
2022/08/20 09:01:57;;;;;;;9.17;1.80;;;26.20;91.00;;;;;;4941001;28;255140;-68
2022/08/20 09:04:38;;;;;;;8.65;1.95;;;25.30;95.30;;;;;;4931464;28;206140;-67
2022/08/20 09:07:12;;;;;;;10.70;1.55;;;25.20;95.40;;;;;;4963318;28;258387;-68
2022/08/20 09:09:42;;;;;;;11.38;1.60;;;25.30;94.50;;;;;;4940414;28;226903;-68
2022/08/20 09:12:11;;;;;;;9.40;1.60;;;26.00;95.40;;;;;;4959204;28;259652;-68
2022/08/20 09:14:38;;;;;;;8.77;1.57;;;26.00;92.30;;;;;;4944538;28;206392;-67
2022/08/20 09:17:05;;;;;;;8.48;1.55;;;26.00;92.70;;;;;;4961175;28;273386;-68
2022/08/20 09:19:31;;;;;;;8.50;1.40;;;26.50;94.00;;;;;;4927110;28;206820;-68
2022/08/20 09:21:57;;;;;;;9.43;1.50;;;26.60;90.80;;;;;;4955462;28;258602;-68
2022/08/20 09:24:24;;;;;;;10.50;1.75;;;26.70;90.60;;;;;;4943566;28;206719;-69
2022/08/20 09:26:50;;;;;;;10.45;1.90;;;26.50;90.50;;;;;;4960579;28;267187;-68
2022/08/20 09:29:16;;;;;;;12.90;1.80;;;26.70;89.40;;;;;;4935939;28;209553;-69
2022/08/20 09:31:42;;;;;;;10.48;1.90;;;26.90;88.60;;;;;;4962034;28;266120;-69
2022/08/20 09:34:08;;;;;;;10.57;1.80;;;27.20;87.70;;;;;;4941572;28;207063;-70
2022/08/20 09:36:35;;;;;;;8.75;1.60;;;27.30;89.90;;;;;;4959562;28;264325;-69
2022/08/20 09:39:01;;;;;;;11.55;1.65;;;27.80;90.30;;;;;;4939966;28;205869;-70
2022/08/20 09:41:28;;;;;;;8.70;1.50;;;28.20;86.90;;;;;;4956086;28;275656;-69
2022/08/20 09:43:54;;;;;;;8.25;1.52;;;28.30;86.20;;;;;;4944252;28;206242;-70
2022/08/20 09:46:20;;;;;;;12.25;1.63;;;28.20;80.60;;;;;;4951697;28;114105;-69
2022/08/20 09:48:46;;;;;;;9.90;1.75;;;27.50;83.80;;;;;;4933611;28;210343;-69
2022/08/20 09:51:15;;;;;;;9.15;1.55;;;27.70;87.50;;;;;;4957779;28;268084;-69
2022/08/20 09:53:42;;;;;;;8.88;1.50;;;28.20;83.30;;;;;;4930471;28;210534;-69
2022/08/20 09:56:08;;;;;;;8.32;1.58;;;28.40;74.40;;;;;;4946975;28;270184;-71
2022/08/20 09:58:42;;;;;;;9.07;1.40;;;27.90;74.90;;;;;;4944766;28;84716;-69
2022/08/20 10:01:13;;;;;;;12.55;1.60;;;27.70;77.00;;;;;;4934135;28;254016;-69
2022/08/20 10:03:44;;;;;;;10.65;1.70;;;27.40;75.60;;;;;;4943942;28;206493;-69
2022/08/20 10:06:13;;;;;;;9.82;1.70;;;27.50;79.30;;;;;;4956217;28;270235;-69
2022/08/20 10:08:39;;;;;;;8.82;1.48;;;27.10;75.50;;;;;;4943454;28;206410;-69
2022/08/20 10:11:05;;;;;;;8.05;1.60;;;26.50;78.80;;;;;;4950237;28;265198;-69
2022/08/20 10:13:31;;;;;;;9.40;1.60;;;26.00;76.70;;;;;;4924132;28;207449;-69
2022/08/20 10:15:58;;;;;;;8.98;1.50;;;25.60;77.60;;;;;;4957611;28;265543;-70
2022/08/20 10:18:24;;;;;;;8.73;1.70;;;25.30;77.70;;;;;;4937457;28;211349;-71
2022/08/20 10:20:50;;;;;;;8.45;1.45;;;24.90;75.50;;;;;;4960638;28;20535;-70
2022/08/20 10:23:16;;;;;;;15.70;1.50;;;24.90;78.60;;;;;;4934389;28;263392;-69
2022/08/20 10:25:42;;;;;;;8.23;1.40;;;25.30;78.30;;;;;;4966243;28;20066;-68
2022/08/20 10:28:09;;;;;;;10.07;1.63;;;26.00;77.90;;;;;;4915238;28;243824;-68
2022/08/20 10:30:35;;;;;;;8.63;1.50;;;26.90;78.80;;;;;;4982267;28;20055;-68
2022/08/20 10:33:01;;;;;;;9.15;1.60;;;27.50;74.10;;;;;;4920078;28;268690;-68
2022/08/20 10:35:28;;;;;;;11.32;1.92;;;27.60;71.90;;;;;;4955012;28;20439;-70
2022/08/20 10:37:54;;;;;;;10.15;1.77;;;27.30;77.00;;;;;;4917502;28;254108;-69
2022/08/20 10:40:21;;;;;;;6.72;1.27;;;27.50;75.50;;;;;;4982102;28;20066;-69
2022/08/20 10:42:47;;;;;;;8.32;1.42;;;28.00;74.60;;;;;;4951607;28;259974;-69
2022/08/20 10:45:15;;;;;;;10.82;1.80;;;27.60;66.70;;;;;;4929762;28;222012;-69
2022/08/20 10:47:42;;;;;;;10.45;1.83;;;27.30;70.50;;;;;;4944539;28;269369;-68
2022/08/20 10:50:13;;;;;;;7.78;1.52;;;27.50;69.30;;;;;;4943008;28;206039;-68
2022/08/20 10:52:39;;;;;;;8.90;1.48;;;27.70;71.40;;;;;;4959163;28;265546;-66
2022/08/20 10:55:06;;;;;;;8.25;1.60;;;28.40;73.30;;;;;;4918903;28;210491;-67
2022/08/20 10:57:32;;;;;;;12.13;1.90;;;28.50;71.30;;;;;;4960763;28;266559;-68
2022/08/20 10:59:59;;;;;;;10.27;1.75;;;28.60;70.00;;;;;;4935584;28;206858;-68
2022/08/20 11:02:27;;;;;;;11.25;1.80;;;28.10;68.40;;;;;;4939719;28;275135;-69
2022/08/20 11:04:54;;;;;;;8.18;1.58;;;27.50;66.50;;;;;;4894501;28;210687;-69
2022/08/20 11:07:28;;;;;;;10.27;2.00;;;26.90;67.60;;;;;;4958876;28;254531;-67
2022/08/20 11:09:55;;;;;;;9.65;1.67;;;26.70;68.80;;;;;;4915431;28;206789;-68
2022/08/20 11:12:22;;;;;;;9.30;1.63;;;27.10;71.00;;;;;;4948843;28;269168;-69
2022/08/20 11:14:49;;;;;;;9.43;1.63;;;27.50;67.30;;;;;;4944307;28;213221;-69
2022/08/20 11:17:28;;;;;;;8.55;1.55;;;27.90;66.70;;;;;;4955512;28;250705;-69
2022/08/20 11:19:55;;;;;;;10.52;1.88;;;28.30;65.30;;;;;;4936932;28;207037;-69
2022/08/20 11:22:22;;;;;;;7.55;1.58;;;27.60;64.20;;;;;;4955817;28;265676;-69
2022/08/20 11:24:48;;;;;;;8.35;1.65;;;27.50;64.90;;;;;;4936796;28;212338;-69
2022/08/20 11:27:27;;;;;;;8.73;1.90;;;27.80;65.70;;;;;;4970623;28;104879;-69
2022/08/20 11:29:53;;;;;;;8.75;1.80;;;28.40;65.10;;;;;;4924066;28;206873;-69
2022/08/20 11:32:22;;;;;;;8.93;1.83;;;28.90;63.70;;;;;;4961248;28;251845;-69
2022/08/20 11:34:48;;;;;;;8.40;1.95;;;28.90;64.20;;;;;;4945284;28;140623;-69
2022/08/20 11:37:17;;;;;;;10.70;1.85;;;28.70;63.00;;;;;;4950665;28;125154;-69
2022/08/20 11:39:43;;;;;;;11.27;2.05;;;28.50;62.60;;;;;;4945729;28;149159;-68
2022/08/20 11:42:09;;;;;;;9.65;2.00;;;27.60;62.20;;;;;;4957107;28;259468;-67
2022/08/20 11:44:36;;;;;;;9.73;1.63;;;27.10;64.00;;;;;;4942700;28;209677;-69
2022/08/20 11:47:04;;;;;;;10.10;2.33;;;26.30;63.90;;;;;;4961332;28;270626;-70
2022/08/20 11:49:32;;;;;;;10.50;2.10;;;25.80;64.30;;;;;;4938365;28;205472;-68
2022/08/20 11:51:58;;;;;;;11.80;2.15;;;26.00;66.70;;;;;;4949580;28;265891;-68
2022/08/20 11:54:24;;;;;;;8.93;1.60;;;26.60;66.80;;;;;;4920136;28;207375;-67
2022/08/20 11:56:50;;;;;;;9.25;1.90;;;26.30;64.60;;;;;;4942882;28;269712;-67
2022/08/20 11:59:17;;;;;;;9.30;1.75;;;25.70;66.20;;;;;;4935086;28;205132;-67
2022/08/20 12:01:43;;;;;;;12.88;1.98;;;25.40;67.40;;;;;;4941923;28;65977;-68
2022/08/20 12:04:09;;;;;;;9.40;1.50;;;25.90;67.00;;;;;;4911188;28;55843;-67
2022/08/20 12:06:35;;;;;;;9.07;1.60;;;26.40;67.80;;;;;;4955051;28;260647;-69
2022/08/20 12:09:02;;;;;;;9.27;1.58;;;26.90;66.50;;;;;;4948171;28;208836;-68
2022/08/20 12:11:28;;;;;;;9.95;1.90;;;26.70;65.80;;;;;;4958357;28;259783;-69
2022/08/20 12:13:54;;;;;;;9.25;1.75;;;26.20;65.80;;;;;;4941905;28;209810;-68
2022/08/20 12:16:21;;;;;;;12.13;2.13;;;25.60;67.00;;;;;;4959736;28;265870;-69
2022/08/20 12:18:47;;;;;;;9.65;1.80;;;25.30;68.40;;;;;;4951991;28;157139;-67
2022/08/20 12:21:14;;;;;;;7.57;1.50;;;25.50;68.30;;;;;;4960045;28;261374;-68
2022/08/20 12:23:40;;;;;;;8.93;1.77;;;26.00;70.20;;;;;;4937121;28;205838;-68
2022/08/20 12:26:07;;;;;;;10.88;1.85;;;26.60;68.40;;;;;;4960828;28;255843;-68
2022/08/20 12:28:33;;;;;;;12.45;1.92;;;26.80;67.20;;;;;;4941447;28;208020;-69
2022/08/20 12:30:59;;;;;;;10.27;1.70;;;27.20;68.10;;;;;;4947041;28;257549;-70
2022/08/20 12:33:25;;;;;;;11.68;2.08;;;28.00;68.70;;;;;;4923799;28;204830;-69
2022/08/20 12:35:52;;;;;;;10.00;1.70;;;28.90;61.70;;;;;;4979504;28;20054;-69
2022/08/20 12:38:18;;;;;;;11.40;2.00;;;28.80;64.50;;;;;;4927521;28;212335;-70
2022/08/20 12:40:44;;;;;;;9.57;1.50;;;28.80;62.60;;;;;;4980928;28;20071;-70